Home ┬╗ From London to Porto Alegre on a brand new DA62…..(Part 1)

First leg of the ferry flight from Diamond Aircraft factory to Diamond Dealership in Porto Alegre !!

Leg from CYUX (London, ON) to KCLT (Charlotte International) on a brand new Diamond DA62 !!!

METAR dos aeroportos:

CYXU 081700Z 24009KT 12SM -SHSN FEW018 OVC030 M05/M08 A3050 RMK CU1SC7 SLP345

KCLT 082052Z 05005KT 5SM -RA SCT020 BKN030 OVC055 04/02 A3044 RMK AO2 SLP309 P0001 60002 T00440017 55004

Song: ├ôlafur Arnalds – A Stutter (feat Arnor Dan)

Add comment

Your email address will not be published. Required fields are marked *

This site uses Akismet to reduce spam. Learn how your comment data is processed.

Advertisement